sensor_id;sensor_type;location;lat;lon;timestamp;pressure;altitude;pressure_sealevel;temperature;humidity
36630;BME280;36256;42.154;23.002;2022-11-25T00:01:22;97010.53;;;9.18;75.30
36630;BME280;36256;42.154;23.002;2022-11-25T00:03:50;97024.06;;;9.20;77.85
36630;BME280;36256;42.154;23.002;2022-11-25T00:06:20;97022.94;;;9.17;75.09
36630;BME280;36256;42.154;23.002;2022-11-25T00:08:49;97018.25;;;9.14;74.19
36630;BME280;36256;42.154;23.002;2022-11-25T00:11:17;97028.19;;;9.15;76.72
36630;BME280;36256;42.154;23.002;2022-11-25T00:13:44;97033.16;;;9.11;76.55
36630;BME280;36256;42.154;23.002;2022-11-25T00:16:13;97030.91;;;9.06;75.58
36630;BME280;36256;42.154;23.002;2022-11-25T00:18:43;97016.72;;;9.01;75.95
36630;BME280;36256;42.154;23.002;2022-11-25T00:21:12;97033.16;;;9.11;77.17
36630;BME280;36256;42.154;23.002;2022-11-25T00:23:40;97029.09;;;9.12;76.54
36630;BME280;36256;42.154;23.002;2022-11-25T00:26:11;97021.63;;;9.09;76.38
36630;BME280;36256;42.154;23.002;2022-11-25T00:28:39;97029.88;;;9.13;77.47
36630;BME280;36256;42.154;23.002;2022-11-25T00:31:06;97028.53;;;9.17;75.89
36630;BME280;36256;42.154;23.002;2022-11-25T00:33:33;97030.44;;;9.20;79.13
36630;BME280;36256;42.154;23.002;2022-11-25T00:36:01;97031.34;;;9.17;80.64
36630;BME280;36256;42.154;23.002;2022-11-25T00:38:28;97025.06;;;9.13;78.45
36630;BME280;36256;42.154;23.002;2022-11-25T00:40:55;97029.09;;;9.12;79.71
36630;BME280;36256;42.154;23.002;2022-11-25T00:43:40;97016.47;;;9.08;76.55
36630;BME280;36256;42.154;23.002;2022-11-25T00:46:25;97023.75;;;9.05;76.61
36630;BME280;36256;42.154;23.002;2022-11-25T00:48:52;97019.16;;;8.99;76.78
36630;BME280;36256;42.154;23.002;2022-11-25T00:51:18;97024.31;;;9.00;75.69
36630;BME280;36256;42.154;23.002;2022-11-25T00:53:45;97032.72;;;9.00;76.18
36630;BME280;36256;42.154;23.002;2022-11-25T00:56:11;97028.25;;;8.90;75.77
36630;BME280;36256;42.154;23.002;2022-11-25T00:58:39;97023.22;;;8.85;75.64
36630;BME280;36256;42.154;23.002;2022-11-25T01:01:06;97029.16;;;8.62;75.54
36630;BME280;36256;42.154;23.002;2022-11-25T01:03:33;97035.75;;;8.68;78.25
36630;BME280;36256;42.154;23.002;2022-11-25T01:06:00;97031.41;;;8.67;77.89
36630;BME280;36256;42.154;23.002;2022-11-25T01:08:31;97032.94;;;8.68;76.76
36630;BME280;36256;42.154;23.002;2022-11-25T01:11:02;97032.06;;;8.71;76.81
36630;BME280;36256;42.154;23.002;2022-11-25T01:13:29;97038.00;;;8.73;77.17
36630;BME280;36256;42.154;23.002;2022-11-25T01:15:56;97030.59;;;8.66;77.37
36630;BME280;36256;42.154;23.002;2022-11-25T01:18:23;97038.53;;;8.68;78.18
36630;BME280;36256;42.154;23.002;2022-11-25T01:20:49;97042.47;;;8.70;77.46
36630;BME280;36256;42.154;23.002;2022-11-25T01:23:16;97034.41;;;8.73;77.66
36630;BME280;36256;42.154;23.002;2022-11-25T01:25:42;97042.59;;;8.80;77.12
36630;BME280;36256;42.154;23.002;2022-11-25T01:28:09;97033.41;;;8.79;77.41
36630;BME280;36256;42.154;23.002;2022-11-25T01:30:35;97039.56;;;8.87;77.14
36630;BME280;36256;42.154;23.002;2022-11-25T01:33:06;97033.84;;;8.90;77.80
36630;BME280;36256;42.154;23.002;2022-11-25T01:35:35;97033.63;;;8.97;77.75
36630;BME280;36256;42.154;23.002;2022-11-25T01:38:03;97027.03;;;8.91;76.39
36630;BME280;36256;42.154;23.002;2022-11-25T01:40:29;97034.19;;;8.92;75.60
36630;BME280;36256;42.154;23.002;2022-11-25T01:42:56;97030.59;;;8.92;76.73
36630;BME280;36256;42.154;23.002;2022-11-25T01:47:58;97033.19;;;8.86;76.93
36630;BME280;36256;42.154;23.002;2022-11-25T01:50:28;97034.41;;;8.73;76.88
36630;BME280;36256;42.154;23.002;2022-11-25T01:52:55;97034.31;;;8.76;76.68
36630;BME280;36256;42.154;23.002;2022-11-25T01:55:28;97016.28;;;8.64;75.43
36630;BME280;36256;42.154;23.002;2022-11-25T01:58:01;97021.66;;;8.59;76.67
36630;BME280;36256;42.154;23.002;2022-11-25T02:00:29;97028.03;;;8.47;77.30
36630;BME280;36256;42.154;23.002;2022-11-25T02:02:57;97028.81;;;8.47;77.67
36630;BME280;36256;42.154;23.002;2022-11-25T02:05:44;97028.59;;;8.42;77.82
36630;BME280;36256;42.154;23.002;2022-11-25T02:08:12;97030.06;;;8.46;78.68
36630;BME280;36256;42.154;23.002;2022-11-25T02:10:42;97023.22;;;8.47;77.19
36630;BME280;36256;42.154;23.002;2022-11-25T02:13:10;97030.47;;;8.45;77.38
36630;BME280;36256;42.154;23.002;2022-11-25T02:15:36;97033.63;;;8.47;77.12
36630;BME280;36256;42.154;23.002;2022-11-25T02:18:03;97025.59;;;8.49;77.35
36630;BME280;36256;42.154;23.002;2022-11-25T02:20:30;97020.88;;;8.46;77.58
36630;BME280;36256;42.154;23.002;2022-11-25T02:25:38;97028.94;;;8.44;78.97
36630;BME280;36256;42.154;23.002;2022-11-25T02:30:41;97027.94;;;8.38;79.17
36630;BME280;36256;42.154;23.002;2022-11-25T02:33:09;97036.97;;;8.42;79.50
36630;BME280;36256;42.154;23.002;2022-11-25T02:40:36;97036.31;;;8.38;78.99
36630;BME280;36256;42.154;23.002;2022-11-25T02:43:04;97040.00;;;8.35;79.58
36630;BME280;36256;42.154;23.002;2022-11-25T02:46:01;97034.06;;;8.33;78.52
36630;BME280;36256;42.154;23.002;2022-11-25T02:48:32;97044.03;;;8.34;79.09
36630;BME280;36256;42.154;23.002;2022-11-25T02:51:21;97044.56;;;8.29;78.83
36630;BME280;36256;42.154;23.002;2022-11-25T02:53:48;97051.25;;;8.19;80.22
36630;BME280;36256;42.154;23.002;2022-11-25T02:56:16;97049.81;;;8.27;80.16
36630;BME280;36256;42.154;23.002;2022-11-25T02:58:42;97045.44;;;8.26;79.63
36630;BME280;36256;42.154;23.002;2022-11-25T03:01:09;97050.66;;;8.24;79.65
36630;BME280;36256;42.154;23.002;2022-11-25T03:03:36;97052.69;;;8.23;80.65
36630;BME280;36256;42.154;23.002;2022-11-25T03:06:03;97063.00;;;8.26;81.76
36630;BME280;36256;42.154;23.002;2022-11-25T03:08:30;97050.03;;;8.32;80.20
36630;BME280;36256;42.154;23.002;2022-11-25T03:10:56;97049.63;;;8.34;78.27
36630;BME280;36256;42.154;23.002;2022-11-25T03:13:23;97049.28;;;8.32;80.28
36630;BME280;36256;42.154;23.002;2022-11-25T03:15:49;97058.75;;;8.34;79.33
36630;BME280;36256;42.154;23.002;2022-11-25T03:18:16;97056.63;;;8.26;79.57
36630;BME280;36256;42.154;23.002;2022-11-25T03:20:43;97064.47;;;8.31;79.67
36630;BME280;36256;42.154;23.002;2022-11-25T03:23:09;97060.13;;;8.30;79.84
36630;BME280;36256;42.154;23.002;2022-11-25T03:25:36;97053.50;;;8.36;79.62
36630;BME280;36256;42.154;23.002;2022-11-25T03:28:03;97057.34;;;8.42;80.62
36630;BME280;36256;42.154;23.002;2022-11-25T03:30:30;97056.56;;;8.42;79.82
36630;BME280;36256;42.154;23.002;2022-11-25T03:32:57;97062.28;;;8.51;78.85
36630;BME280;36256;42.154;23.002;2022-11-25T03:35:23;97070.34;;;8.49;79.37
36630;BME280;36256;42.154;23.002;2022-11-25T03:37:50;97074.34;;;8.48;78.21
36630;BME280;36256;42.154;23.002;2022-11-25T03:40:17;97072.09;;;8.43;79.36
36630;BME280;36256;42.154;23.002;2022-11-25T03:42:44;97068.75;;;8.48;79.15
36630;BME280;36256;42.154;23.002;2022-11-25T03:45:12;97068.53;;;8.55;79.70
36630;BME280;36256;42.154;23.002;2022-11-25T03:47:42;97073.81;;;8.53;79.25
36630;BME280;36256;42.154;23.002;2022-11-25T03:50:11;97083.06;;;8.50;79.19
36630;BME280;36256;42.154;23.002;2022-11-25T03:52:38;97077.81;;;8.52;78.95
36630;BME280;36256;42.154;23.002;2022-11-25T03:55:05;97074.34;;;8.48;77.65
36630;BME280;36256;42.154;23.002;2022-11-25T03:57:32;97077.47;;;8.50;78.95
36630;BME280;36256;42.154;23.002;2022-11-25T03:59:59;97083.41;;;8.52;78.02
36630;BME280;36256;42.154;23.002;2022-11-25T04:02:26;97092.38;;;8.59;79.02
36630;BME280;36256;42.154;23.002;2022-11-25T04:04:52;97085.09;;;8.62;77.37
36630;BME280;36256;42.154;23.002;2022-11-25T04:07:19;97091.13;;;8.48;77.99
36630;BME280;36256;42.154;23.002;2022-11-25T04:09:45;97097.19;;;8.59;77.72
36630;BME280;36256;42.154;23.002;2022-11-25T04:12:12;97107.47;;;8.62;78.28
36630;BME280;36256;42.154;23.002;2022-11-25T04:14:57;97109.91;;;8.60;76.63
36630;BME280;36256;42.154;23.002;2022-11-25T04:17:24;97120.56;;;8.65;78.06
36630;BME280;36256;42.154;23.002;2022-11-25T04:19:50;97120.56;;;8.65;77.25
36630;BME280;36256;42.154;23.002;2022-11-25T04:22:17;97121.78;;;8.64;77.03
36630;BME280;36256;42.154;23.002;2022-11-25T04:24:43;97117.22;;;8.70;76.71
36630;BME280;36256;42.154;23.002;2022-11-25T04:27:10;97123.25;;;8.68;78.02
36630;BME280;36256;42.154;23.002;2022-11-25T04:29:36;97117.78;;;8.65;77.45
36630;BME280;36256;42.154;23.002;2022-11-25T04:32:03;97129.63;;;8.69;78.38
36630;BME280;36256;42.154;23.002;2022-11-25T04:34:30;97130.50;;;8.66;75.94
36630;BME280;36256;42.154;23.002;2022-11-25T04:36:56;97136.44;;;8.68;76.64
36630;BME280;36256;42.154;23.002;2022-11-25T04:39:23;97135.69;;;8.67;77.43
36630;BME280;36256;42.154;23.002;2022-11-25T04:41:49;97145.53;;;8.72;77.50
36630;BME280;36256;42.154;23.002;2022-11-25T04:44:36;97149.34;;;8.78;77.87
36630;BME280;36256;42.154;23.002;2022-11-25T04:47:03;97148.44;;;8.81;77.71
36630;BME280;36256;42.154;23.002;2022-11-25T04:49:29;97154.94;;;8.78;77.17
36630;BME280;36256;42.154;23.002;2022-11-25T04:51:56;97156.41;;;8.83;76.41
36630;BME280;36256;42.154;23.002;2022-11-25T04:54:22;97162.88;;;8.80;77.14
36630;BME280;36256;42.154;23.002;2022-11-25T04:56:49;97163.88;;;8.73;76.64
36630;BME280;36256;42.154;23.002;2022-11-25T04:59:15;97165.47;;;8.74;77.29
36630;BME280;36256;42.154;23.002;2022-11-25T05:02:01;97176.84;;;8.67;76.37
36630;BME280;36256;42.154;23.002;2022-11-25T05:04:27;97186.13;;;8.64;78.03
36630;BME280;36256;42.154;23.002;2022-11-25T05:06:54;97182.44;;;8.67;76.93
36630;BME280;36256;42.154;23.002;2022-11-25T05:09:20;97195.28;;;8.64;77.72
36630;BME280;36256;42.154;23.002;2022-11-25T05:11:47;97200.66;;;8.59;77.56
36630;BME280;36256;42.154;23.002;2022-11-25T05:14:14;97207.59;;;8.54;78.26
36630;BME280;36256;42.154;23.002;2022-11-25T05:16:41;97213.28;;;8.51;76.62
36630;BME280;36256;42.154;23.002;2022-11-25T05:19:08;97220.63;;;8.45;79.16
36630;BME280;36256;42.154;23.002;2022-11-25T05:21:34;97214.25;;;8.44;78.45
36630;BME280;36256;42.154;23.002;2022-11-25T05:24:01;97228.13;;;8.48;79.90
36630;BME280;36256;42.154;23.002;2022-11-25T05:26:27;97232.41;;;8.52;78.75
36630;BME280;36256;42.154;23.002;2022-11-25T05:28:54;97234.66;;;8.57;79.03
36630;BME280;36256;42.154;23.002;2022-11-25T05:31:20;97235.31;;;8.49;77.50
36630;BME280;36256;42.154;23.002;2022-11-25T05:33:47;97224.66;;;8.44;78.20
36630;BME280;36256;42.154;23.002;2022-11-25T05:36:14;97229.22;;;8.38;77.77
36630;BME280;36256;42.154;23.002;2022-11-25T05:38:41;97236.38;;;8.39;79.43
36630;BME280;36256;42.154;23.002;2022-11-25T05:41:09;97247.91;;;8.41;79.42
36630;BME280;36256;42.154;23.002;2022-11-25T05:43:36;97260.66;;;8.42;79.60
36630;BME280;36256;42.154;23.002;2022-11-25T05:46:04;97263.13;;;8.40;79.57
36630;BME280;36256;42.154;23.002;2022-11-25T05:48:31;97253.69;;;8.34;79.20
36630;BME280;36256;42.154;23.002;2022-11-25T05:50:59;97260.06;;;8.34;78.90
36630;BME280;36256;42.154;23.002;2022-11-25T05:53:26;97273.34;;;8.30;80.10
36630;BME280;36256;42.154;23.002;2022-11-25T05:55:58;97276.13;;;8.30;80.92
36630;BME280;36256;42.154;23.002;2022-11-25T05:58:25;97278.50;;;8.32;80.36
36630;BME280;36256;42.154;23.002;2022-11-25T06:00:51;97298.44;;;8.34;80.87
36630;BME280;36256;42.154;23.002;2022-11-25T06:03:18;97287.84;;;8.41;79.24
36630;BME280;36256;42.154;23.002;2022-11-25T06:05:45;97293.88;;;8.40;80.19
36630;BME280;36256;42.154;23.002;2022-11-25T06:08:11;97284.09;;;8.32;78.19
36630;BME280;36256;42.154;23.002;2022-11-25T06:10:39;97305.91;;;8.37;79.13
36630;BME280;36256;42.154;23.002;2022-11-25T06:13:07;97303.47;;;8.39;79.33
36630;BME280;36256;42.154;23.002;2022-11-25T06:15:39;97302.44;;;8.33;78.05
36630;BME280;36256;42.154;23.002;2022-11-25T06:18:07;97299.13;;;8.38;78.52
36630;BME280;36256;42.154;23.002;2022-11-25T06:20:34;97311.00;;;8.42;78.86
36630;BME280;36256;42.154;23.002;2022-11-25T06:23:01;97315.09;;;8.37;78.25
36630;BME280;36256;42.154;23.002;2022-11-25T06:25:28;97304.72;;;8.38;79.30
36630;BME280;36256;42.154;23.002;2022-11-25T06:27:55;97316.69;;;8.38;79.10
36630;BME280;36256;42.154;23.002;2022-11-25T06:30:38;97306.09;;;8.46;77.57
36630;BME280;36256;42.154;23.002;2022-11-25T06:33:05;97316.41;;;8.49;77.21
36630;BME280;36256;42.154;23.002;2022-11-25T06:35:31;97315.34;;;8.43;77.94
36630;BME280;36256;42.154;23.002;2022-11-25T06:37:58;97324.63;;;8.40;79.20
36630;BME280;36256;42.154;23.002;2022-11-25T06:40:25;97317.72;;;8.44;78.30
36630;BME280;36256;42.154;23.002;2022-11-25T06:42:51;97321.84;;;8.40;78.06
36630;BME280;36256;42.154;23.002;2022-11-25T06:45:18;97313.78;;;8.42;77.75
36630;BME280;36256;42.154;23.002;2022-11-25T06:47:45;97325.31;;;8.44;77.98
36630;BME280;36256;42.154;23.002;2022-11-25T06:50:11;97309.22;;;8.48;76.53
36630;BME280;36256;42.154;23.002;2022-11-25T06:52:38;97320.91;;;8.59;76.41
36630;BME280;36256;42.154;23.002;2022-11-25T06:55:05;97323.09;;;8.67;76.30
36630;BME280;36256;42.154;23.002;2022-11-25T06:57:31;97326.81;;;8.77;76.13
36630;BME280;36256;42.154;23.002;2022-11-25T06:59:58;97337.81;;;8.84;77.22
36630;BME280;36256;42.154;23.002;2022-11-25T07:02:24;97334.03;;;8.91;75.83
36630;BME280;36256;42.154;23.002;2022-11-25T07:04:51;97338.66;;;8.97;75.56
36630;BME280;36256;42.154;23.002;2022-11-25T07:07:19;97342.25;;;9.10;76.29
36630;BME280;36256;42.154;23.002;2022-11-25T07:09:45;97346.22;;;9.25;76.30
36630;BME280;36256;42.154;23.002;2022-11-25T07:12:14;97348.38;;;9.34;73.78
36630;BME280;36256;42.154;23.002;2022-11-25T07:14:41;97335.97;;;9.47;74.04
36630;BME280;36256;42.154;23.002;2022-11-25T07:17:08;97336.44;;;9.59;73.67
36630;BME280;36256;42.154;23.002;2022-11-25T07:19:37;97342.16;;;9.68;73.85
36630;BME280;36256;42.154;23.002;2022-11-25T07:22:04;97335.22;;;9.72;71.77
36630;BME280;36256;42.154;23.002;2022-11-25T07:24:31;97337.81;;;9.92;71.65
36630;BME280;36256;42.154;23.002;2022-11-25T07:26:59;97347.75;;;10.05;70.76
36630;BME280;36256;42.154;23.002;2022-11-25T07:29:25;97334.34;;;10.13;68.24
36630;BME280;36256;42.154;23.002;2022-11-25T07:32:13;97333.75;;;10.18;67.11
36630;BME280;36256;42.154;23.002;2022-11-25T07:34:39;97336.94;;;10.20;67.06
36630;BME280;36256;42.154;23.002;2022-11-25T07:37:06;97330.53;;;10.19;67.58
36630;BME280;36256;42.154;23.002;2022-11-25T07:39:33;97327.50;;;10.14;67.09
36630;BME280;36256;42.154;23.002;2022-11-25T07:42:00;97342.41;;;10.23;66.47
36630;BME280;36256;42.154;23.002;2022-11-25T07:44:27;97331.72;;;10.31;65.95
36630;BME280;36256;42.154;23.002;2022-11-25T07:46:53;97333.97;;;10.36;65.45
36630;BME280;36256;42.154;23.002;2022-11-25T07:49:21;97331.00;;;10.52;62.57
36630;BME280;36256;42.154;23.002;2022-11-25T07:51:52;97334.44;;;10.69;61.59
36630;BME280;36256;42.154;23.002;2022-11-25T07:54:20;97330.53;;;10.66;61.91
36630;BME280;36256;42.154;23.002;2022-11-25T07:56:48;97326.25;;;10.74;61.38
36630;BME280;36256;42.154;23.002;2022-11-25T07:59:18;97354.03;;;10.81;62.76
36630;BME280;36256;42.154;23.002;2022-11-25T08:01:45;97324.25;;;10.62;61.75
36630;BME280;36256;42.154;23.002;2022-11-25T08:04:12;97323.44;;;10.74;61.32
36630;BME280;36256;42.154;23.002;2022-11-25T08:06:47;97307.13;;;10.82;60.28
36630;BME280;36256;42.154;23.002;2022-11-25T08:09:16;97325.72;;;10.88;61.74
36630;BME280;36256;42.154;23.002;2022-11-25T08:11:46;97322.66;;;10.95;59.89
36630;BME280;36256;42.154;23.002;2022-11-25T08:14:14;97326.53;;;11.11;60.70
36630;BME280;36256;42.154;23.002;2022-11-25T08:16:41;97328.09;;;11.12;62.36
36630;BME280;36256;42.154;23.002;2022-11-25T08:19:10;97332.81;;;11.15;60.16
36630;BME280;36256;42.154;23.002;2022-11-25T08:21:37;97324.25;;;11.18;59.34
36630;BME280;36256;42.154;23.002;2022-11-25T08:24:04;97332.91;;;11.33;61.23
36630;BME280;36256;42.154;23.002;2022-11-25T08:26:34;97343.63;;;11.47;58.74
36630;BME280;36256;42.154;23.002;2022-11-25T08:29:04;97334.72;;;11.70;58.64
36630;BME280;36256;42.154;23.002;2022-11-25T08:31:36;97331.22;;;12.18;56.71
36630;BME280;36256;42.154;23.002;2022-11-25T08:34:05;97314.72;;;12.66;56.66
36630;BME280;36256;42.154;23.002;2022-11-25T08:36:32;97327.22;;;13.64;52.93
36630;BME280;36256;42.154;23.002;2022-11-25T08:39:02;97309.81;;;14.07;50.89
36630;BME280;36256;42.154;23.002;2022-11-25T08:41:48;97314.47;;;14.29;50.77
36630;BME280;36256;42.154;23.002;2022-11-25T08:44:14;97301.38;;;15.99;46.35
36630;BME280;36256;42.154;23.002;2022-11-25T08:46:41;97292.22;;;16.73;44.71
36630;BME280;36256;42.154;23.002;2022-11-25T08:49:08;97288.81;;;16.89;44.36
36630;BME280;36256;42.154;23.002;2022-11-25T08:51:36;97268.06;;;17.69;42.57
36630;BME280;36256;42.154;23.002;2022-11-25T08:54:03;97268.75;;;18.63;41.64
36630;BME280;36256;42.154;23.002;2022-11-25T08:56:30;97267.75;;;17.42;40.86
36630;BME280;36256;42.154;23.002;2022-11-25T08:58:57;97269.91;;;16.26;42.34
36630;BME280;36256;42.154;23.002;2022-11-25T09:01:25;97280.41;;;16.40;44.95
36630;BME280;36256;42.154;23.002;2022-11-25T09:03:54;97273.78;;;16.28;43.80
36630;BME280;36256;42.154;23.002;2022-11-25T09:06:22;97293.50;;;16.03;44.58
36630;BME280;36256;42.154;23.002;2022-11-25T09:08:49;97297.50;;;15.00;46.30
36630;BME280;36256;42.154;23.002;2022-11-25T09:11:16;97287.66;;;14.95;46.44
36630;BME280;36256;42.154;23.002;2022-11-25T09:13:43;97306.41;;;14.60;47.90
36630;BME280;36256;42.154;23.002;2022-11-25T09:16:10;97315.66;;;14.37;48.55
36630;BME280;36256;42.154;23.002;2022-11-25T09:18:36;97309.53;;;14.05;48.73
36630;BME280;36256;42.154;23.002;2022-11-25T09:21:08;97301.47;;;13.80;49.06
36630;BME280;36256;42.154;23.002;2022-11-25T09:23:37;97303.06;;;13.72;49.89
36630;BME280;36256;42.154;23.002;2022-11-25T09:26:05;97309.97;;;13.62;49.82
36630;BME280;36256;42.154;23.002;2022-11-25T09:28:33;97312.19;;;13.58;50.26
36630;BME280;36256;42.154;23.002;2022-11-25T09:31:08;97306.84;;;13.60;51.95
36630;BME280;36256;42.154;23.002;2022-11-25T09:33:35;97306.53;;;13.58;50.80
36630;BME280;36256;42.154;23.002;2022-11-25T09:36:03;97311.84;;;13.65;50.24
36630;BME280;36256;42.154;23.002;2022-11-25T09:38:31;97311.06;;;13.74;50.20
36630;BME280;36256;42.154;23.002;2022-11-25T09:41:01;97312.66;;;13.66;50.23
36630;BME280;36256;42.154;23.002;2022-11-25T09:43:44;97317.28;;;13.87;51.16
36630;BME280;36256;42.154;23.002;2022-11-25T09:47:04;97308.50;;;13.34;50.84
36630;BME280;36256;42.154;23.002;2022-11-25T09:57:24;97322.72;;;13.03;52.10
36630;BME280;36256;42.154;23.002;2022-11-25T10:02:27;97326.00;;;12.56;51.76
36630;BME280;36256;42.154;23.002;2022-11-25T10:05:05;97330.63;;;12.32;53.39
36630;BME280;36256;42.154;23.002;2022-11-25T10:07:38;97329.66;;;12.26;52.21
36630;BME280;36256;42.154;23.002;2022-11-25T10:10:23;97325.84;;;12.11;52.83
36630;BME280;36256;42.154;23.002;2022-11-25T10:12:53;97340.25;;;12.13;52.84
36630;BME280;36256;42.154;23.002;2022-11-25T10:15:28;97347.09;;;12.12;55.33
36630;BME280;36256;42.154;23.002;2022-11-25T10:19:10;97330.34;;;12.00;53.33
36630;BME280;36256;42.154;23.002;2022-11-25T10:21:00;97347.81;;;11.95;53.82
36630;BME280;36256;42.154;23.002;2022-11-25T10:23:38;97337.16;;;11.90;55.10
36630;BME280;36256;42.154;23.002;2022-11-25T10:26:13;97336.69;;;11.82;54.71
36630;BME280;36256;42.154;23.002;2022-11-25T10:28:50;97331.53;;;11.90;54.34
36630;BME280;36256;42.154;23.002;2022-11-25T10:31:20;97339.84;;;11.93;55.22
36630;BME280;36256;42.154;23.002;2022-11-25T10:33:51;97334.19;;;11.84;55.14
36630;BME280;36256;42.154;23.002;2022-11-25T10:36:23;97333.66;;;11.76;55.53
36630;BME280;36256;42.154;23.002;2022-11-25T10:39:02;97327.44;;;11.81;55.49
36630;BME280;36256;42.154;23.002;2022-11-25T10:41:33;97332.47;;;11.87;54.90
36630;BME280;36256;42.154;23.002;2022-11-25T10:44:02;97329.47;;;11.81;55.24
36630;BME280;36256;42.154;23.002;2022-11-25T10:49:29;97326.66;;;11.81;54.29
36630;BME280;36256;42.154;23.002;2022-11-25T10:51:59;97328.56;;;11.84;54.97
36630;BME280;36256;42.154;23.002;2022-11-25T10:54:27;97333.44;;;11.93;54.37
36630;BME280;36256;42.154;23.002;2022-11-25T10:59:34;97343.91;;;11.92;55.10
36630;BME280;36256;42.154;23.002;2022-11-25T11:02:23;97351.69;;;11.88;54.45
36630;BME280;36256;42.154;23.002;2022-11-25T11:07:22;97350.81;;;11.69;54.03
36630;BME280;36256;42.154;23.002;2022-11-25T11:09:49;97358.03;;;11.49;55.96
36630;BME280;36256;42.154;23.002;2022-11-25T11:12:24;97365.72;;;11.36;54.68
36630;BME280;36256;42.154;23.002;2022-11-25T11:15:17;97353.53;;;11.30;54.13
36630;BME280;36256;42.154;23.002;2022-11-25T11:17:44;97359.31;;;11.35;54.29
36630;BME280;36256;42.154;23.002;2022-11-25T11:20:25;97365.97;;;11.29;53.81
36630;BME280;36256;42.154;23.002;2022-11-25T11:23:00;97363.50;;;11.31;54.62
36630;BME280;36256;42.154;23.002;2022-11-25T11:25:36;97362.84;;;11.27;53.97
36630;BME280;36256;42.154;23.002;2022-11-25T11:28:43;97358.19;;;11.33;54.57
36630;BME280;36256;42.154;23.002;2022-11-25T11:31:21;97365.34;;;11.25;54.45
36630;BME280;36256;42.154;23.002;2022-11-25T11:33:57;97367.94;;;11.41;54.90
36630;BME280;36256;42.154;23.002;2022-11-25T11:36:34;97372.25;;;11.54;54.10
36630;BME280;36256;42.154;23.002;2022-11-25T11:39:33;97374.59;;;11.77;53.46
36630;BME280;36256;42.154;23.002;2022-11-25T11:45:09;97369.78;;;11.78;50.58
36630;BME280;36256;42.154;23.002;2022-11-25T11:50:26;97368.06;;;11.59;52.00
36630;BME280;36256;42.154;23.002;2022-11-25T11:53:15;97374.88;;;11.49;52.58
36630;BME280;36256;42.154;23.002;2022-11-25T11:56:06;97368.25;;;11.43;52.75
36630;BME280;36256;42.154;23.002;2022-11-25T12:02:04;97379.56;;;11.30;52.80
36630;BME280;36256;42.154;23.002;2022-11-25T12:04:43;97375.66;;;11.28;54.06
36630;BME280;36256;42.154;23.002;2022-11-25T12:07:19;97384.34;;;11.21;53.79
36630;BME280;36256;42.154;23.002;2022-11-25T12:10:01;97376.47;;;11.16;53.58
36630;BME280;36256;42.154;23.002;2022-11-25T12:12:36;97380.88;;;11.17;54.97
36630;BME280;36256;42.154;23.002;2022-11-25T12:18:19;97374.72;;;11.31;54.84
36630;BME280;36256;42.154;23.002;2022-11-25T12:23:42;97386.88;;;11.06;54.70
36630;BME280;36256;42.154;23.002;2022-11-25T12:26:14;97388.31;;;11.11;55.38
36630;BME280;36256;42.154;23.002;2022-11-25T12:29:03;97379.25;;;11.07;55.56
36630;BME280;36256;42.154;23.002;2022-11-25T12:31:38;97386.31;;;10.98;55.04
36630;BME280;36256;42.154;23.002;2022-11-25T12:34:26;97392.97;;;10.92;55.45
36630;BME280;36256;42.154;23.002;2022-11-25T12:37:04;97383.31;;;10.93;55.29
36630;BME280;36256;42.154;23.002;2022-11-25T12:39:45;97386.31;;;10.98;55.79
36630;BME280;36256;42.154;23.002;2022-11-25T12:42:22;97382.06;;;10.94;55.16
36630;BME280;36256;42.154;23.002;2022-11-25T12:47:25;97390.38;;;10.97;55.79
36630;BME280;36256;42.154;23.002;2022-11-25T12:49:53;97386.59;;;10.91;56.03
36630;BME280;36256;42.154;23.002;2022-11-25T13:00:22;97385.50;;;10.76;56.42
36630;BME280;36256;42.154;23.002;2022-11-25T13:06:26;97397.28;;;10.71;56.97
36630;BME280;36256;42.154;23.002;2022-11-25T13:17:15;97402.28;;;10.55;58.13
36630;BME280;36256;42.154;23.002;2022-11-25T13:19:43;97403.72;;;10.59;57.75
36630;BME280;36256;42.154;23.002;2022-11-25T13:24:56;97402.44;;;10.73;56.86
36630;BME280;36256;42.154;23.002;2022-11-25T13:35:54;97397.28;;;10.71;57.53
36630;BME280;36256;42.154;23.002;2022-11-25T13:38:35;97408.28;;;10.78;57.76
36630;BME280;36256;42.154;23.002;2022-11-25T13:49:56;97415.75;;;10.60;59.61
36630;BME280;36256;42.154;23.002;2022-11-25T13:52:31;97410.22;;;10.56;58.62
36630;BME280;36256;42.154;23.002;2022-11-25T13:54:59;97417.44;;;10.57;59.23
36630;BME280;36256;42.154;23.002;2022-11-25T14:05:01;97427.97;;;10.53;60.60
36630;BME280;36256;42.154;23.002;2022-11-25T14:07:32;97432.00;;;10.52;60.48
36630;BME280;36256;42.154;23.002;2022-11-25T14:24:43;97442.91;;;10.38;61.08
36630;BME280;36256;42.154;23.002;2022-11-25T14:27:17;97450.19;;;10.35;63.18
36630;BME280;36256;42.154;23.002;2022-11-25T14:30:05;97443.03;;;10.34;61.33
36630;BME280;36256;42.154;23.002;2022-11-25T14:32:55;97454.25;;;10.34;61.90
36630;BME280;36256;42.154;23.002;2022-11-25T14:38:05;97451.56;;;10.43;62.61
36630;BME280;36256;42.154;23.002;2022-11-25T14:40:42;97460.53;;;10.38;61.40
36630;BME280;36256;42.154;23.002;2022-11-25T14:43:19;97447.28;;;10.26;61.37
36630;BME280;36256;42.154;23.002;2022-11-25T14:45:47;97452.44;;;10.15;63.31
36630;BME280;36256;42.154;23.002;2022-11-25T14:48:33;97447.94;;;10.05;62.64
36630;BME280;36256;42.154;23.002;2022-11-25T14:51:03;97452.56;;;10.11;62.03
36630;BME280;36256;42.154;23.002;2022-11-25T14:53:38;97453.53;;;10.05;61.80
36630;BME280;36256;42.154;23.002;2022-11-25T14:56:25;97456.47;;;10.14;60.22
36630;BME280;36256;42.154;23.002;2022-11-25T14:58:54;97434.44;;;10.00;61.52
36630;BME280;36256;42.154;23.002;2022-11-25T15:01:28;97452.19;;;10.09;62.01
36630;BME280;36256;42.154;23.002;2022-11-25T15:06:36;97453.53;;;10.05;62.00
36630;BME280;36256;42.154;23.002;2022-11-25T15:11:44;97450.78;;;9.89;63.08